27 minutes ago
Runway Headwind Crosswind Length
1 kt 2 kt 10,499 ft
1 kt 2 kt 8,760 ft
METAR FMEE 031400Z AUTO 05003KT 020V090 9999 OVC046 23/15 Q1021 NOSIG

METAR definition | Embed

METAR Gillot Airport

Gillot Airport is a midsized airport in St Denis, Reunion. The airport has 2 runways: 12/30 (10,499 ft) and 14/32

This report was made for Gillot Airport on August 3, 2021 6:00 pm, local time.

Airport observations

The wind is from direction northeast (050°) with a speed of 3 kt. The wind direction varies between northnortheast (020°) and east (090°).

Visibility is 6¼ mi or more.

There are overcast clouds at an altitude of 4,600 ft. The ceiling, broken or more, is 4,600 ft.

The temperature and wind chill are 73 °F. The dew point is 59 °F, the relative humidity is 61%. The air pressure at sea level is 30.15 inHg (QNH).

Daylight period

Today the sun rises at 6:47 am and sets at 6:00 pm. This applies to Gillot Airport, the universal daylight period may be different. The difference between the local time and UTC is +4 hour. Daylight saving time is currently in progress.

Historical data

Donate

Will you help us to keep Metar-Taf.com running?
Your contribution helps further development of the site and to pay for the expenses.

No more ads

Are you donating $ 5 or more? Then we'll never show you ads again, as a token of our eternal gratitude!
Log in before you donate

Do you want the flying weather of Gillot Airport on your website? Read more   Free!